createdAt,value
2023-05-22T00:00:23.437Z,15.61
2023-05-22T00:02:50.950Z,15.58
2023-05-22T00:05:18.508Z,15.34
2023-05-22T00:07:46.087Z,15.37
2023-05-22T00:10:12.800Z,15.33
2023-05-22T00:12:39.487Z,15.32
2023-05-22T00:15:06.356Z,15.27
2023-05-22T00:17:34.112Z,15.08
2023-05-22T00:20:05.700Z,15.00
2023-05-22T00:22:35.324Z,15.01
2023-05-22T00:25:05.745Z,15.16
2023-05-22T00:27:32.674Z,15.03
2023-05-22T00:29:59.659Z,15.08
2023-05-22T00:32:26.358Z,15.19
2023-05-22T00:34:52.919Z,15.06
2023-05-22T00:37:20.044Z,15.01
2023-05-22T00:39:46.673Z,14.95
2023-05-22T00:42:13.480Z,14.89
2023-05-22T00:44:40.065Z,14.90
2023-05-22T00:47:08.044Z,14.89
2023-05-22T00:49:34.725Z,14.96
2023-05-22T00:52:01.558Z,14.93
2023-05-22T00:54:29.000Z,15.02
2023-05-22T00:56:55.700Z,15.00
2023-05-22T00:59:22.307Z,14.80
2023-05-22T01:01:49.038Z,14.64
2023-05-22T01:04:15.957Z,14.58
2023-05-22T01:06:42.524Z,14.63
2023-05-22T01:09:11.471Z,14.79
2023-05-22T01:11:42.140Z,14.84
2023-05-22T01:14:17.477Z,14.91
2023-05-22T01:16:48.642Z,14.53
2023-05-22T01:19:31.102Z,14.50
2023-05-22T01:22:05.477Z,14.79
2023-05-22T01:24:44.213Z,15.08
2023-05-22T01:27:29.078Z,15.07
2023-05-22T01:30:02.192Z,15.43
2023-05-22T01:32:29.782Z,15.67
2023-05-22T01:34:59.415Z,15.76
2023-05-22T01:37:26.552Z,15.85
2023-05-22T01:39:53.996Z,15.66
2023-05-22T01:42:20.565Z,15.61
2023-05-22T01:44:48.263Z,15.76
2023-05-22T01:47:15.425Z,15.94
2023-05-22T01:49:42.779Z,15.87
2023-05-22T01:52:18.825Z,15.82
2023-05-22T01:54:50.203Z,15.91
2023-05-22T01:57:19.832Z,16.03
2023-05-22T01:59:54.476Z,16.07
2023-05-22T02:02:21.933Z,15.94
2023-05-22T02:05:09.819Z,15.80
2023-05-22T02:07:37.916Z,15.60
2023-05-22T02:10:05.464Z,15.59
2023-05-22T02:12:32.016Z,16.17
2023-05-22T02:14:58.524Z,15.98
2023-05-22T02:17:27.521Z,15.71
2023-05-22T02:19:54.045Z,15.80
2023-05-22T02:22:20.713Z,15.51
2023-05-22T02:24:47.972Z,15.43
2023-05-22T02:27:16.847Z,15.41
2023-05-22T02:29:43.397Z,15.24
2023-05-22T02:32:10.015Z,15.20
2023-05-22T02:34:37.921Z,15.36
2023-05-22T02:37:05.615Z,15.19
2023-05-22T02:39:32.367Z,15.22
2023-05-22T02:41:58.962Z,15.29
2023-05-22T02:44:25.614Z,15.28
2023-05-22T02:46:52.346Z,15.12
2023-05-22T02:49:18.961Z,15.15
2023-05-22T02:51:47.748Z,15.12
2023-05-22T02:54:15.801Z,15.10
2023-05-22T02:56:43.157Z,15.06
2023-05-22T02:59:10.870Z,15.03
2023-05-22T03:01:38.821Z,15.11
2023-05-22T03:04:06.392Z,15.25
2023-05-22T03:06:33.017Z,15.29
2023-05-22T03:08:59.565Z,15.23
2023-05-22T03:11:26.054Z,15.10
2023-05-22T03:13:52.629Z,14.91
2023-05-22T03:16:19.687Z,14.74
2023-05-22T03:18:47.867Z,14.78
2023-05-22T03:21:14.421Z,14.83
2023-05-22T03:23:40.956Z,14.85
2023-05-22T03:26:07.482Z,14.69
2023-05-22T03:28:36.782Z,14.62
2023-05-22T03:31:03.549Z,14.67
2023-05-22T03:33:38.365Z,14.71
2023-05-22T03:36:05.220Z,14.85
2023-05-22T03:38:31.801Z,14.86
2023-05-22T03:40:58.323Z,14.83
2023-05-22T03:43:24.808Z,14.97
2023-05-22T03:45:51.424Z,14.81
2023-05-22T03:48:18.024Z,14.72
2023-05-22T03:50:44.768Z,14.96
2023-05-22T03:53:12.275Z,15.05
2023-05-22T03:55:38.751Z,14.99
2023-05-22T03:58:05.427Z,14.97
2023-05-22T04:00:33.325Z,15.01
2023-05-22T04:02:59.895Z,14.98
2023-05-22T04:05:26.592Z,15.12
2023-05-22T04:07:53.174Z,15.19
2023-05-22T04:10:22.697Z,15.29
2023-05-22T04:12:52.185Z,15.25
2023-05-22T04:15:18.708Z,15.31
2023-05-22T04:17:46.163Z,15.31
2023-05-22T04:20:12.907Z,15.46
2023-05-22T04:22:39.862Z,15.47
2023-05-22T04:25:06.626Z,15.54
2023-05-22T04:27:34.231Z,15.74
2023-05-22T04:30:02.347Z,15.96
2023-05-22T04:32:29.683Z,15.87
2023-05-22T04:34:58.395Z,15.76
2023-05-22T04:37:26.509Z,15.67
2023-05-22T04:39:58.215Z,15.75
2023-05-22T04:42:25.364Z,15.75
2023-05-22T04:44:57.995Z,16.00
2023-05-22T04:47:24.599Z,16.32
2023-05-22T04:49:51.712Z,16.31
2023-05-22T04:52:18.356Z,16.51
2023-05-22T04:54:46.689Z,16.52
2023-05-22T04:57:13.365Z,16.44
2023-05-22T04:59:40.975Z,16.59
2023-05-22T05:02:08.680Z,16.81
2023-05-22T05:04:35.993Z,16.55
2023-05-22T05:07:02.689Z,16.72
2023-05-22T05:09:29.449Z,16.86
2023-05-22T05:11:56.342Z,17.09
2023-05-22T05:14:22.990Z,17.13
2023-05-22T05:16:51.772Z,17.43
2023-05-22T05:19:21.384Z,17.70
2023-05-22T05:21:49.322Z,17.86
2023-05-22T05:24:17.546Z,18.05
2023-05-22T05:26:44.701Z,17.95
2023-05-22T05:29:12.764Z,18.09
2023-05-22T05:31:49.983Z,18.16
2023-05-22T05:34:37.947Z,18.47
2023-05-22T05:37:10.561Z,18.79
2023-05-22T05:39:37.932Z,19.03
2023-05-22T05:42:06.846Z,19.21
2023-05-22T05:44:33.401Z,19.19
2023-05-22T05:47:01.051Z,19.54
2023-05-22T05:49:28.102Z,19.85
2023-05-22T05:51:55.326Z,19.73
2023-05-22T05:54:22.600Z,19.93
2023-05-22T05:56:52.321Z,20.09
2023-05-22T05:59:18.924Z,20.20
2023-05-22T06:02:14.372Z,20.37
2023-05-22T06:04:42.097Z,20.76
2023-05-22T06:07:10.107Z,20.70
2023-05-22T06:09:41.405Z,21.13
2023-05-22T06:12:15.380Z,20.91
2023-05-22T06:14:44.656Z,20.72
2023-05-22T06:17:12.449Z,20.51
2023-05-22T06:19:42.210Z,21.36
2023-05-22T06:22:09.147Z,22.15
2023-05-22T06:24:37.870Z,21.30
2023-05-22T06:27:10.760Z,21.84
2023-05-22T06:29:37.444Z,21.73
2023-05-22T06:32:04.767Z,22.02
2023-05-22T06:34:31.382Z,22.12
2023-05-22T06:36:59.021Z,22.11
2023-05-22T06:39:31.977Z,22.46
2023-05-22T06:42:21.732Z,21.82
2023-05-22T06:45:20.665Z,22.54
2023-05-22T06:48:16.295Z,22.75
2023-05-22T06:51:03.179Z,23.13
2023-05-22T06:53:30.134Z,23.18
2023-05-22T06:55:57.344Z,23.87
2023-05-22T06:58:34.440Z,23.48
2023-05-22T07:01:03.205Z,23.87
2023-05-22T07:03:36.087Z,24.05
2023-05-22T07:06:41.823Z,24.65
2023-05-22T07:09:08.874Z,24.62
2023-05-22T07:11:38.441Z,24.56
2023-05-22T07:14:04.998Z,25.22
2023-05-22T07:16:31.758Z,24.52
2023-05-22T07:18:58.934Z,25.01
2023-05-22T07:21:26.098Z,25.17
2023-05-22T07:23:53.320Z,25.48
2023-05-22T07:26:22.453Z,25.82
2023-05-22T07:28:57.803Z,25.52
2023-05-22T07:31:24.447Z,25.62
2023-05-22T07:33:52.144Z,25.93
2023-05-22T07:36:19.149Z,26.16
2023-05-22T07:38:46.493Z,26.16
2023-05-22T07:41:13.275Z,26.98
2023-05-22T07:43:39.843Z,26.85
2023-05-22T07:46:09.360Z,26.65
2023-05-22T07:48:43.900Z,26.94
2023-05-22T07:51:10.645Z,27.08
2023-05-22T07:53:37.339Z,26.61
2023-05-22T07:56:05.192Z,26.90
2023-05-22T07:58:32.185Z,27.25
2023-05-22T08:00:59.052Z,27.96
2023-05-22T08:03:25.996Z,27.97
2023-05-22T08:05:52.808Z,27.93
2023-05-22T08:08:19.372Z,28.31
2023-05-22T08:11:01.939Z,27.91
2023-05-22T08:13:29.432Z,26.10
2023-05-22T08:16:00.727Z,27.47
2023-05-22T08:18:29.109Z,27.69
2023-05-22T08:20:56.226Z,28.05
2023-05-22T08:23:22.911Z,28.59
2023-05-22T08:25:50.254Z,28.85
2023-05-22T08:28:17.193Z,28.69
2023-05-22T08:30:43.853Z,28.82
2023-05-22T08:33:10.390Z,28.43
2023-05-22T08:35:36.944Z,27.44
2023-05-22T08:38:03.484Z,28.46
2023-05-22T08:40:40.587Z,28.41
2023-05-22T08:43:08.582Z,27.92
2023-05-22T08:45:35.144Z,28.46
2023-05-22T08:48:08.265Z,27.63
2023-05-22T08:50:41.728Z,27.21
2023-05-22T08:53:11.286Z,28.10
2023-05-22T08:55:37.913Z,28.59
2023-05-22T08:58:04.628Z,28.12
2023-05-22T09:00:31.412Z,28.80
2023-05-22T09:02:58.028Z,27.88
2023-05-22T09:05:26.833Z,28.38
2023-05-22T09:07:56.537Z,27.79
2023-05-22T09:10:25.591Z,27.35
2023-05-22T09:13:09.337Z,28.79
2023-05-22T09:15:36.526Z,29.02
2023-05-22T09:18:03.661Z,29.53
2023-05-22T09:20:33.972Z,29.10
2023-05-22T09:23:02.561Z,29.26
2023-05-22T09:25:29.130Z,29.35
2023-05-22T09:27:55.789Z,28.76
2023-05-22T09:30:22.285Z,28.64
2023-05-22T09:32:49.119Z,27.70
2023-05-22T09:35:16.339Z,29.49
2023-05-22T09:37:42.970Z,28.65
2023-05-22T09:40:12.042Z,29.85
2023-05-22T09:42:38.567Z,28.96
2023-05-22T09:45:08.382Z,28.13
2023-05-22T09:47:35.257Z,28.17
2023-05-22T09:50:07.098Z,29.93
2023-05-22T09:52:34.313Z,28.88
2023-05-22T09:55:04.928Z,28.14
2023-05-22T09:57:35.394Z,30.03
2023-05-22T10:00:04.535Z,29.59
2023-05-22T10:02:38.904Z,29.58
2023-05-22T10:05:08.110Z,28.57
2023-05-22T10:07:46.506Z,29.47
2023-05-22T10:10:15.366Z,28.15
2023-05-22T10:12:43.648Z,28.13
2023-05-22T10:15:11.087Z,29.16
2023-05-22T10:17:38.178Z,28.46
2023-05-22T10:20:07.890Z,28.97
2023-05-22T10:22:36.615Z,29.76
2023-05-22T10:25:03.371Z,28.60
2023-05-22T10:27:29.947Z,28.98
2023-05-22T10:30:15.100Z,28.91
2023-05-22T10:32:57.907Z,27.98
2023-05-22T10:35:43.358Z,28.47
2023-05-22T10:38:28.881Z,29.96
2023-05-22T10:40:55.687Z,29.88
2023-05-22T10:43:22.845Z,29.23
2023-05-22T10:45:49.380Z,30.47
2023-05-22T10:48:21.575Z,30.10
2023-05-22T10:50:54.683Z,28.98
2023-05-22T10:53:23.493Z,28.84
2023-05-22T10:55:50.002Z,30.01
2023-05-22T10:58:17.410Z,29.64
2023-05-22T11:00:44.479Z,30.66
2023-05-22T11:03:17.868Z,30.35
2023-05-22T11:05:52.260Z,29.61
2023-05-22T11:08:28.101Z,29.90
2023-05-22T11:10:55.277Z,29.68
2023-05-22T11:13:26.040Z,29.97
2023-05-22T11:15:55.709Z,29.34
2023-05-22T11:18:22.309Z,28.68
2023-05-22T11:20:48.903Z,30.21
2023-05-22T11:23:18.005Z,29.90
2023-05-22T11:25:44.830Z,28.96
2023-05-22T11:28:11.811Z,29.87
2023-05-22T11:30:38.885Z,29.87
2023-05-22T11:33:06.635Z,29.40
2023-05-22T11:35:33.341Z,30.38
2023-05-22T11:38:03.599Z,30.75
2023-05-22T11:40:30.098Z,29.19
2023-05-22T11:42:56.968Z,28.92
2023-05-22T11:45:24.066Z,29.14
2023-05-22T11:47:50.717Z,29.03
2023-05-22T11:50:29.167Z,29.96
2023-05-22T11:53:03.900Z,29.19
2023-05-22T11:55:30.481Z,28.76
2023-05-22T11:57:57.780Z,28.91
2023-05-22T12:00:24.469Z,29.21
2023-05-22T12:02:51.379Z,29.90
2023-05-22T12:05:20.267Z,28.79
2023-05-22T12:07:46.789Z,29.83
2023-05-22T12:10:14.157Z,29.34
2023-05-22T12:12:41.352Z,28.21
2023-05-22T12:15:08.163Z,28.64
2023-05-22T12:17:36.002Z,28.86
2023-05-22T12:20:02.654Z,29.59
2023-05-22T12:22:29.809Z,29.93
2023-05-22T12:24:56.466Z,28.54
2023-05-22T12:27:22.993Z,28.37
2023-05-22T12:29:49.604Z,29.29
2023-05-22T12:32:18.230Z,29.77
2023-05-22T12:34:46.119Z,28.97
2023-05-22T12:37:19.458Z,28.91
2023-05-22T12:39:55.596Z,29.09
2023-05-22T12:42:22.138Z,29.22
2023-05-22T12:44:48.668Z,28.93
2023-05-22T12:47:15.186Z,29.14
2023-05-22T12:49:41.709Z,28.60
2023-05-22T12:52:08.236Z,28.25
2023-05-22T12:54:34.750Z,28.66
2023-05-22T12:57:01.455Z,28.92
2023-05-22T12:59:27.972Z,28.73
2023-05-22T13:01:54.788Z,28.63
2023-05-22T13:04:21.598Z,29.22
2023-05-22T13:06:48.052Z,28.83
2023-05-22T13:09:16.953Z,28.78
2023-05-22T13:11:43.647Z,28.62
2023-05-22T13:14:10.147Z,28.81
2023-05-22T13:16:36.825Z,30.34
2023-05-22T13:19:03.395Z,30.54
2023-05-22T13:21:29.962Z,30.63
2023-05-22T13:23:56.681Z,30.59
2023-05-22T13:26:23.162Z,29.35
2023-05-22T13:28:50.345Z,30.22
2023-05-22T13:31:16.959Z,30.29
2023-05-22T13:33:43.493Z,29.61
2023-05-22T13:36:10.053Z,30.16
2023-05-22T13:38:36.930Z,29.53
2023-05-22T13:41:03.515Z,29.21
2023-05-22T13:43:30.026Z,29.61
2023-05-22T13:45:56.827Z,30.02
2023-05-22T13:48:23.344Z,29.27
2023-05-22T13:50:49.848Z,29.39
2023-05-22T13:53:16.411Z,29.97
2023-05-22T13:55:42.884Z,30.33
2023-05-22T13:58:09.476Z,30.25
2023-05-22T14:00:36.089Z,29.30
2023-05-22T14:03:02.857Z,29.23
2023-05-22T14:05:29.443Z,28.82
2023-05-22T14:07:56.801Z,29.01
2023-05-22T14:10:23.399Z,28.66
2023-05-22T14:12:50.161Z,28.41
2023-05-22T14:15:17.833Z,28.06
2023-05-22T14:17:44.512Z,28.39
2023-05-22T14:20:11.350Z,28.41
2023-05-22T14:22:55.234Z,28.74
2023-05-22T14:25:23.550Z,28.44
2023-05-22T14:27:50.077Z,28.53
2023-05-22T14:30:16.786Z,27.76
2023-05-22T14:32:43.433Z,28.18
2023-05-22T14:35:10.129Z,28.53
2023-05-22T14:37:36.772Z,28.66
2023-05-22T14:40:03.749Z,28.56
2023-05-22T14:42:30.231Z,28.23
2023-05-22T14:44:57.401Z,27.71
2023-05-22T14:47:23.896Z,27.16
2023-05-22T14:49:50.634Z,27.75
2023-05-22T14:52:17.161Z,27.96
2023-05-22T14:54:43.780Z,27.98
2023-05-22T14:57:10.278Z,27.39
2023-05-22T14:59:36.786Z,28.03
2023-05-22T15:02:03.446Z,28.08
2023-05-22T15:04:30.190Z,27.85
2023-05-22T15:06:56.715Z,28.29
2023-05-22T15:09:23.447Z,27.81
2023-05-22T15:11:51.052Z,27.25
2023-05-22T15:14:17.933Z,27.46
2023-05-22T15:16:44.688Z,27.24
2023-05-22T15:19:11.365Z,27.03
2023-05-22T15:21:37.973Z,27.24
2023-05-22T15:24:04.606Z,27.16
2023-05-22T15:26:31.169Z,26.75
2023-05-22T15:29:03.947Z,27.33
2023-05-22T15:31:31.013Z,27.89
2023-05-22T15:33:57.716Z,27.77
2023-05-22T15:36:24.192Z,27.03
2023-05-22T15:38:50.741Z,27.01
2023-05-22T15:41:17.404Z,26.89
2023-05-22T15:43:44.566Z,26.88
2023-05-22T15:46:14.475Z,26.88
2023-05-22T15:48:41.087Z,26.69
2023-05-22T15:51:09.600Z,26.90
2023-05-22T15:53:36.143Z,26.70
2023-05-22T15:56:02.713Z,26.74
2023-05-22T15:58:30.189Z,26.91
2023-05-22T16:00:57.030Z,26.65
2023-05-22T16:03:23.736Z,26.86
2023-05-22T16:05:50.410Z,27.21
2023-05-22T16:08:17.075Z,27.29
2023-05-22T16:10:45.328Z,27.01
2023-05-22T16:13:12.038Z,26.65
2023-05-22T16:15:39.827Z,26.52
2023-05-22T16:18:07.287Z,26.19
2023-05-22T16:20:34.557Z,26.19
2023-05-22T16:23:01.446Z,26.04
2023-05-22T16:25:28.203Z,26.30
2023-05-22T16:27:54.751Z,26.28
2023-05-22T16:30:21.389Z,26.16
2023-05-22T16:32:48.450Z,25.95
2023-05-22T16:35:15.808Z,26.16
2023-05-22T16:37:42.340Z,26.37
2023-05-22T16:40:11.842Z,26.08
2023-05-22T16:42:38.510Z,25.93
2023-05-22T16:45:05.888Z,25.81
2023-05-22T16:47:33.016Z,25.51
2023-05-22T16:49:59.697Z,25.54
2023-05-22T16:52:26.295Z,25.63
2023-05-22T16:54:53.013Z,25.90
2023-05-22T16:57:19.554Z,25.88
2023-05-22T16:59:46.323Z,25.72
2023-05-22T17:02:13.593Z,25.67
2023-05-22T17:04:40.993Z,25.47
2023-05-22T17:07:07.687Z,25.77
2023-05-22T17:09:34.410Z,25.47
2023-05-22T17:12:01.129Z,25.37
2023-05-22T17:14:27.710Z,25.36
2023-05-22T17:16:55.193Z,25.26
2023-05-22T17:19:21.857Z,25.32
2023-05-22T17:21:48.482Z,24.84
2023-05-22T17:24:15.104Z,25.03
2023-05-22T17:26:41.936Z,24.76
2023-05-22T17:29:09.410Z,24.95
2023-05-22T17:31:38.887Z,25.21
2023-05-22T17:34:05.947Z,25.33
2023-05-22T17:36:32.566Z,25.55
2023-05-22T17:38:59.399Z,25.41
2023-05-22T17:41:26.457Z,25.17
2023-05-22T17:43:54.628Z,25.09
2023-05-22T17:46:21.216Z,25.34
2023-05-22T17:48:47.800Z,25.48
2023-05-22T17:51:14.328Z,25.65
2023-05-22T17:53:40.864Z,25.27
2023-05-22T17:56:07.418Z,25.31
2023-05-22T17:58:34.002Z,25.39
2023-05-22T18:01:00.618Z,25.29
2023-05-22T18:03:27.290Z,25.17
2023-05-22T18:05:53.885Z,24.93
2023-05-22T18:08:21.333Z,24.86
2023-05-22T18:10:48.327Z,24.83
2023-05-22T18:13:15.058Z,24.82
2023-05-22T18:15:41.827Z,24.59
2023-05-22T18:18:09.563Z,24.17
2023-05-22T18:20:37.765Z,23.77
2023-05-22T18:23:04.514Z,23.74
2023-05-22T18:25:30.988Z,23.85
2023-05-22T18:27:57.465Z,24.05
2023-05-22T18:30:23.970Z,23.97
2023-05-22T18:32:50.759Z,23.81
2023-05-22T18:35:17.393Z,23.77
2023-05-22T18:37:44.111Z,23.70
2023-05-22T18:40:11.450Z,23.49
2023-05-22T18:42:38.052Z,23.41
2023-05-22T18:45:06.092Z,23.34
2023-05-22T18:47:32.690Z,23.17
2023-05-22T18:49:59.322Z,23.28
2023-05-22T18:52:25.792Z,23.23
2023-05-22T18:54:52.294Z,23.09
2023-05-22T18:57:18.801Z,23.01
2023-05-22T18:59:46.171Z,22.97
2023-05-22T19:02:12.779Z,22.99
2023-05-22T19:04:39.485Z,22.88
2023-05-22T19:07:06.189Z,23.10
2023-05-22T19:09:32.752Z,23.02
2023-05-22T19:11:59.314Z,22.75
2023-05-22T19:14:25.877Z,22.58
2023-05-22T19:16:52.503Z,22.38
2023-05-22T19:19:19.159Z,22.02
2023-05-22T19:21:45.792Z,21.73
2023-05-22T19:24:12.318Z,21.71
2023-05-22T19:26:38.974Z,21.58
2023-05-22T19:29:05.640Z,21.26
2023-05-22T19:31:32.190Z,21.27
2023-05-22T19:33:58.720Z,21.17
2023-05-22T19:36:27.794Z,21.19
2023-05-22T19:38:54.322Z,21.06
2023-05-22T19:41:22.734Z,20.87
2023-05-22T19:43:49.244Z,20.98
2023-05-22T19:46:15.707Z,20.95
2023-05-22T19:48:42.245Z,20.84
2023-05-22T19:51:08.812Z,20.79
2023-05-22T19:53:35.328Z,20.43
2023-05-22T19:56:04.761Z,20.10
2023-05-22T19:58:31.266Z,20.29
2023-05-22T20:00:57.781Z,20.11
2023-05-22T20:03:24.588Z,20.17
2023-05-22T20:05:52.189Z,20.07
2023-05-22T20:08:18.882Z,20.02
2023-05-22T20:10:47.298Z,19.85
2023-05-22T20:13:13.845Z,19.88
2023-05-22T20:15:41.096Z,19.76
2023-05-22T20:18:08.390Z,19.83
2023-05-22T20:20:35.218Z,19.72
2023-05-22T20:23:01.948Z,19.69
2023-05-22T20:25:28.552Z,19.55
2023-05-22T20:27:55.055Z,19.65
2023-05-22T20:30:21.566Z,19.67
2023-05-22T20:32:48.068Z,19.57
2023-05-22T20:35:18.402Z,19.63
2023-05-22T20:37:46.142Z,19.46
2023-05-22T20:40:13.492Z,19.40
2023-05-22T20:42:42.421Z,19.38
2023-05-22T20:45:12.233Z,19.39
2023-05-22T20:47:41.007Z,19.44
2023-05-22T20:50:08.933Z,19.40
2023-05-22T20:52:37.257Z,19.20
2023-05-22T20:55:04.657Z,19.17
2023-05-22T20:57:31.411Z,19.10
2023-05-22T20:59:58.501Z,18.90
2023-05-22T21:02:25.815Z,18.59
2023-05-22T21:04:52.493Z,18.76
2023-05-22T21:07:19.570Z,18.63
2023-05-22T21:09:46.157Z,18.66
2023-05-22T21:12:12.773Z,18.69
2023-05-22T21:14:40.215Z,18.66
2023-05-22T21:17:07.070Z,18.80
2023-05-22T21:19:33.779Z,18.68
2023-05-22T21:22:00.330Z,18.71
2023-05-22T21:24:26.902Z,18.67
2023-05-22T21:26:53.413Z,18.70
2023-05-22T21:29:19.900Z,18.62
2023-05-22T21:31:46.494Z,18.52
2023-05-22T21:34:13.114Z,18.50
2023-05-22T21:36:39.605Z,18.31
2023-05-22T21:39:06.160Z,18.25
2023-05-22T21:41:32.727Z,18.13
2023-05-22T21:43:59.445Z,18.00
2023-05-22T21:46:26.314Z,17.97
2023-05-22T21:48:53.831Z,18.15
2023-05-22T21:51:20.444Z,18.11
2023-05-22T21:53:46.903Z,18.03
2023-05-22T21:56:13.471Z,17.99
2023-05-22T21:58:39.986Z,17.83
2023-05-22T22:01:06.658Z,17.99
2023-05-22T22:03:33.223Z,17.76
2023-05-22T22:05:59.859Z,17.57
2023-05-22T22:08:28.308Z,17.68
2023-05-22T22:10:55.247Z,17.69
2023-05-22T22:13:21.842Z,17.83
2023-05-22T22:15:48.357Z,17.89
2023-05-22T22:18:15.788Z,17.74
2023-05-22T22:20:44.884Z,17.56
2023-05-22T22:23:12.262Z,17.54
2023-05-22T22:25:39.271Z,17.54
2023-05-22T22:28:06.174Z,17.51
2023-05-22T22:30:32.741Z,17.51
2023-05-22T22:32:59.666Z,17.51
2023-05-22T22:35:29.063Z,17.42
2023-05-22T22:37:56.008Z,17.41
2023-05-22T22:40:24.272Z,17.45
2023-05-22T22:42:51.894Z,17.16
2023-05-22T22:45:18.403Z,17.05
2023-05-22T22:47:45.831Z,17.14
2023-05-22T22:50:12.663Z,17.27
2023-05-22T22:52:41.664Z,17.08
2023-05-22T22:55:09.026Z,17.01
2023-05-22T22:57:36.039Z,16.77
2023-05-22T23:00:02.512Z,16.77
2023-05-22T23:02:29.100Z,16.77
2023-05-22T23:04:55.853Z,16.58
2023-05-22T23:07:24.080Z,16.63
2023-05-22T23:09:50.642Z,16.75
2023-05-22T23:12:17.206Z,16.82
2023-05-22T23:14:44.840Z,16.81
2023-05-22T23:17:11.352Z,16.61
2023-05-22T23:19:37.832Z,16.60
2023-05-22T23:22:04.492Z,16.60
2023-05-22T23:24:31.076Z,16.49
2023-05-22T23:26:57.585Z,16.53
2023-05-22T23:29:24.111Z,16.49
2023-05-22T23:31:50.821Z,16.50
2023-05-22T23:34:17.351Z,16.45
2023-05-22T23:36:43.921Z,16.44
2023-05-22T23:39:10.537Z,16.37
2023-05-22T23:41:37.084Z,16.38
2023-05-22T23:44:03.940Z,16.27
2023-05-22T23:46:30.539Z,16.26
2023-05-22T23:48:57.027Z,16.28
2023-05-22T23:51:23.534Z,16.48
2023-05-22T23:53:50.072Z,16.56
2023-05-22T23:56:16.992Z,16.49
2023-05-22T23:58:43.558Z,16.43
